Time;durP1;ratioP1;P1;durP2;ratioP2;P2;SDS_P1;SDS_P2;PMS_P1;PMS_P2;Temp;Humidity;BMP_temperature;BMP_pressure;BME280_temperature;BME280_humidity;BME280_pressure;Samples;Min_cycle;Max_cycle;Signal;HPM_P1;HPM_P2
2023/10/28 00:02:10;;;;;;;1999.90;999.90;;;;;;;15.45;82.92;99383.47;10523270;28;20051;-69
2023/10/28 00:07:13;;;;;;;1999.90;999.90;;;;;;;15.74;82.72;99377.84;10541030;28;20056;-69
2023/10/28 00:12:15;;;;;;;1999.90;999.90;;;;;;;15.87;83.38;99379.28;10522956;28;20059;-69
2023/10/28 00:17:18;;;;;;;1999.90;999.90;;;;;;;15.59;83.32;99374.97;10540022;28;20060;-69
2023/10/28 00:22:21;;;;;;;1999.90;999.90;;;;;;;15.76;83.99;99383.00;10540582;28;20044;-69
2023/10/28 00:27:24;;;;;;;1999.90;999.90;;;;;;;15.63;81.94;99387.84;10540420;28;20050;-69
2023/10/28 00:32:27;;;;;;;1999.90;999.90;;;;;;;15.51;83.90;99384.63;10540302;28;20127;-69
2023/10/28 00:37:29;;;;;;;1999.90;999.90;;;;;;;15.37;83.95;99388.66;10539262;28;20050;-69
2023/10/28 00:42:38;;;;;;;1999.90;999.90;;;;;;;15.65;83.90;99383.22;10539413;28;20528;-69
2023/10/28 00:47:46;;;;;;;1999.90;999.90;;;;;;;15.91;83.01;99388.53;10522372;28;20052;-69
2023/10/28 00:52:52;;;;;;;1999.90;999.90;;;;;;;15.65;82.25;99393.78;10522550;28;20058;-69
2023/10/28 00:57:55;;;;;;;1999.90;999.90;;;;;;;15.44;85.83;99392.34;10521325;28;20488;-69
2023/10/28 01:02:57;;;;;;;1999.90;999.90;;;;;;;15.20;85.63;99385.91;10539759;28;20052;-69
2023/10/28 01:07:59;;;;;;;1999.90;999.90;;;;;;;15.36;84.71;99373.81;10521569;28;20060;-69
2023/10/28 01:13:06;;;;;;;1999.90;999.90;;;;;;;15.74;83.79;99390.22;10538834;28;20488;-69
2023/10/28 01:18:10;;;;;;;1999.90;999.90;;;;;;;15.53;84.64;99391.44;10538731;28;20492;-69
2023/10/28 01:23:12;;;;;;;1999.90;999.90;;;;;;;15.14;85.35;99380.41;10539296;28;20052;-69
2023/10/28 01:28:18;;;;;;;1999.90;999.90;;;;;;;15.97;81.06;99382.66;10539207;28;20089;-69
2023/10/28 01:33:20;;;;;;;1999.90;999.90;;;;;;;16.07;81.18;99374.59;10538496;28;20412;-69
2023/10/28 01:38:23;;;;;;;1999.90;999.90;;;;;;;15.32;83.21;99375.13;10538900;28;20172;-69
2023/10/28 01:43:26;;;;;;;1999.90;999.90;;;;;;;15.92;80.35;99379.63;10538384;28;20202;-69
2023/10/28 01:48:29;;;;;;;1999.90;999.90;;;;;;;15.34;82.66;99373.16;10543870;28;20058;-69
2023/10/28 01:53:31;;;;;;;1999.90;999.90;;;;;;;15.80;81.10;99368.50;10546189;28;20051;-69
2023/10/28 01:58:33;;;;;;;1999.90;999.90;;;;;;;16.19;80.59;99369.84;10527507;28;20054;-69
2023/10/28 02:03:36;;;;;;;1999.90;999.90;;;;;;;15.79;84.41;99378.25;10527982;28;20048;-69
2023/10/28 02:08:38;;;;;;;1999.90;999.90;;;;;;;15.75;84.25;99386.59;10527127;28;20060;-69
2023/10/28 02:13:40;;;;;;;1999.90;999.90;;;;;;;15.86;82.93;99383.72;10545523;28;20051;-69
2023/10/28 02:18:44;;;;;;;1999.90;999.90;;;;;;;15.57;84.53;99387.47;10527023;28;20123;-69
2023/10/28 02:23:46;;;;;;;1999.90;999.90;;;;;;;15.65;82.15;99384.09;10545155;28;20070;-69
2023/10/28 02:28:48;;;;;;;1999.90;999.90;;;;;;;16.10;81.84;99383.00;10544214;28;20055;-69
2023/10/28 02:33:51;;;;;;;1999.90;999.90;;;;;;;16.03;81.66;99387.28;10545203;28;20052;-69
2023/10/28 02:38:53;;;;;;;1999.90;999.90;;;;;;;15.69;83.70;99388.06;10544445;28;20044;-69
2023/10/28 02:43:55;;;;;;;1999.90;999.90;;;;;;;16.42;80.42;99384.13;10543683;28;20564;-69
2023/10/28 02:48:58;;;;;;;1999.90;999.90;;;;;;;16.37;80.94;99386.41;10543464;28;20484;-69
2023/10/28 02:54:01;;;;;;;1999.90;999.90;;;;;;;15.58;84.54;99385.66;10543968;28;20048;-69
2023/10/28 02:59:06;;;;;;;1999.90;999.90;;;;;;;15.74;82.38;99382.31;10542740;28;20060;-69
2023/10/28 03:04:09;;;;;;;1999.90;999.90;;;;;;;15.88;82.46;99378.28;10525728;28;20087;-69
2023/10/28 03:09:12;;;;;;;1999.90;999.90;;;;;;;16.06;80.67;99384.31;10508512;28;20510;-69
2023/10/28 03:14:14;;;;;;;1999.90;999.90;;;;;;;16.16;79.14;99385.03;10525181;28;20168;-69
2023/10/28 03:19:17;;;;;;;1999.90;999.90;;;;;;;16.09;80.58;99396.41;10542853;28;20048;-69
2023/10/28 03:24:19;;;;;;;1999.90;999.90;;;;;;;16.15;80.05;99391.31;10542041;28;20052;-69
2023/10/28 03:29:22;;;;;;;1999.90;999.90;;;;;;;15.56;83.44;99392.91;10542466;28;20047;-69
2023/10/28 03:34:24;;;;;;;1999.90;999.90;;;;;;;15.72;83.52;99386.94;10541644;28;20047;-69
2023/10/28 03:39:26;;;;;;;1999.90;999.90;;;;;;;15.17;85.12;99383.56;10541380;28;20396;-69
2023/10/28 03:44:29;;;;;;;1999.90;999.90;;;;;;;15.28;84.26;99386.94;10541914;28;20056;-69
2023/10/28 03:49:31;;;;;;;1999.90;999.90;;;;;;;15.39;83.08;99379.59;10523890;28;20048;-69
2023/10/28 03:54:33;;;;;;;1999.90;999.90;;;;;;;15.38;82.77;99385.88;10541559;28;20070;-69
2023/10/28 03:59:36;;;;;;;1999.90;999.90;;;;;;;15.58;84.12;99390.94;10541192;28;20046;-69
2023/10/28 04:04:38;;;;;;;1999.90;999.90;;;;;;;15.63;82.97;99393.94;10540355;28;20074;-69
2023/10/28 04:09:41;;;;;;;1999.90;999.90;;;;;;;15.35;84.85;99388.00;10541289;28;20119;-69
2023/10/28 04:14:44;;;;;;;1999.90;999.90;;;;;;;15.87;80.47;99388.03;10540840;28;20048;-69
2023/10/28 04:19:46;;;;;;;1999.90;999.90;;;;;;;15.59;82.00;99385.50;10539957;28;20070;-69
2023/10/28 04:24:49;;;;;;;1999.90;999.90;;;;;;;15.38;84.64;99374.47;10522763;28;20523;-69
2023/10/28 04:29:51;;;;;;;1999.90;999.90;;;;;;;15.23;84.96;99380.31;10539735;28;20131;-69
2023/10/28 04:34:54;;;;;;;1999.90;999.90;;;;;;;15.33;85.43;99384.66;10540124;28;20048;-69
2023/10/28 04:40:07;;;;;;;1999.90;999.90;;;;;;;15.38;84.08;99380.59;10523876;28;20051;-69
2023/10/28 04:45:10;;;;;;;1999.90;999.90;;;;;;;14.82;83.58;99385.22;10540523;28;20058;-69
2023/10/28 04:50:13;;;;;;;1999.90;999.90;;;;;;;15.77;82.38;99371.50;10539991;28;20122;-69
2023/10/28 04:55:15;;;;;;;1999.90;999.90;;;;;;;15.00;81.96;99360.69;10539145;28;20499;-69
2023/10/28 05:00:19;;;;;;;1999.90;999.90;;;;;;;15.75;82.94;99369.00;10521832;28;20199;-69
2023/10/28 05:05:21;;;;;;;1999.90;999.90;;;;;;;15.33;81.88;99361.78;10538866;28;20056;-69
2023/10/28 05:10:24;;;;;;;1999.90;999.90;;;;;;;15.64;81.68;99363.94;10539566;28;20075;-69
2023/10/28 05:15:28;;;;;;;1999.90;999.90;;;;;;;15.07;82.60;99360.91;10539390;28;20056;-69
2023/10/28 05:20:33;;;;;;;1999.90;999.90;;;;;;;14.92;85.35;99371.97;10522518;28;20044;-69
2023/10/28 05:25:36;;;;;;;1999.90;999.90;;;;;;;15.23;83.02;99358.38;10529554;28;20485;-69
2023/10/28 05:30:38;;;;;;;1999.90;999.90;;;;;;;15.46;82.80;99365.81;10546638;28;20485;-69
2023/10/28 05:35:40;;;;;;;1999.90;999.90;;;;;;;15.14;83.84;99365.41;10546340;28;20405;-69
2023/10/28 05:40:43;;;;;;;1999.90;999.90;;;;;;;15.15;83.75;99361.81;10528312;28;20412;-69
2023/10/28 05:45:45;;;;;;;1999.90;999.90;;;;;;;15.17;86.31;99359.84;10528943;28;20044;-69
2023/10/28 05:50:48;;;;;;;1999.90;999.90;;;;;;;15.29;82.29;99360.41;10546522;28;20051;-69
2023/10/28 05:55:51;;;;;;;1999.90;999.90;;;;;;;15.64;82.36;99366.59;10546193;28;20052;-69
2023/10/28 06:00:54;;;;;;;1999.90;999.90;;;;;;;15.77;81.49;99371.50;10527470;28;20075;-69
2023/10/28 06:05:56;;;;;;;1999.90;999.90;;;;;;;15.14;86.56;99370.69;10545687;28;20066;-68
2023/10/28 06:10:59;;;;;;;1999.90;999.90;;;;;;;15.31;82.68;99378.72;10527093;28;20060;-69
2023/10/28 06:16:02;;;;;;;1999.90;999.90;;;;;;;15.38;84.96;99379.75;10545875;28;20044;-69
2023/10/28 06:21:05;;;;;;;1999.90;999.90;;;;;;;15.10;83.57;99387.78;10527383;28;20113;-69
2023/10/28 06:26:07;;;;;;;1999.90;999.90;;;;;;;15.26;84.82;99388.91;10527170;28;20072;-69
2023/10/28 06:31:10;;;;;;;1999.90;999.90;;;;;;;15.13;85.32;99389.28;10544880;28;20047;-69
2023/10/28 06:36:12;;;;;;;1999.90;999.90;;;;;;;15.51;83.50;99398.66;10542690;28;20111;-69
2023/10/28 06:41:15;;;;;;;1999.90;999.90;;;;;;;15.80;81.02;99392.25;10544548;28;20056;-69
2023/10/28 06:46:17;;;;;;;1999.90;999.90;;;;;;;15.59;82.64;99401.34;10543624;28;20044;-69
2023/10/28 06:51:21;;;;;;;1999.90;999.90;;;;;;;15.98;79.56;99400.94;10544097;28;20058;-69
2023/10/28 06:56:25;;;;;;;1999.90;999.90;;;;;;;16.06;79.88;99396.72;10543800;28;20044;-69
2023/10/28 07:01:27;;;;;;;1999.90;999.90;;;;;;;15.63;80.33;99401.84;10543507;28;20113;-69
2023/10/28 07:06:31;;;;;;;1999.90;999.90;;;;;;;15.53;83.95;99394.06;10543077;28;20052;-68
2023/10/28 07:11:33;;;;;;;1999.90;999.90;;;;;;;15.56;83.38;99396.38;10543245;28;20050;-69
2023/10/28 07:16:35;;;;;;;1999.90;999.90;;;;;;;16.15;80.79;99398.38;10542955;28;20048;-69
2023/10/28 07:21:38;;;;;;;1999.90;999.90;;;;;;;15.88;82.07;99402.88;10542774;28;20481;-69
2023/10/28 07:26:40;;;;;;;1999.90;999.90;;;;;;;16.29;81.68;99403.09;10524039;28;20408;-68
2023/10/28 07:31:43;;;;;;;1999.90;999.90;;;;;;;16.00;80.06;99402.59;10523936;28;20548;-69
2023/10/28 07:36:45;;;;;;;1999.90;999.90;;;;;;;15.67;81.37;99410.28;10541544;28;20503;-69
2023/10/28 07:41:47;;;;;;;1999.90;999.90;;;;;;;15.69;83.86;99417.06;10541909;28;20493;-69
2023/10/28 07:46:50;;;;;;;1999.90;999.90;;;;;;;15.50;83.26;99419.91;10541967;28;20052;-69
2023/10/28 07:51:52;;;;;;;1999.90;999.90;;;;;;;16.15;84.08;99423.00;10523526;28;20451;-69
2023/10/28 07:56:55;;;;;;;1999.90;999.90;;;;;;;15.81;81.47;99432.69;10541420;28;20044;-69
2023/10/28 08:01:58;;;;;;;1999.90;999.90;;;;;;;16.45;82.45;99441.09;10540673;28;20074;-69
2023/10/28 08:07:01;;;;;;;1999.90;999.90;;;;;;;16.13;83.02;99443.44;10540871;28;20082;-69
2023/10/28 08:12:04;;;;;;;1999.90;999.90;;;;;;;16.24;82.95;99449.41;10523063;28;20130;-69
2023/10/28 08:17:08;;;;;;;1999.90;999.90;;;;;;;16.63;83.97;99448.94;10523283;28;20044;-69
2023/10/28 08:22:12;;;;;;;1999.90;999.90;;;;;;;16.29;81.86;99442.69;10522169;28;20056;-69
2023/10/28 08:27:14;;;;;;;1999.90;999.90;;;;;;;16.78;80.44;99449.97;10540601;28;20132;-69
2023/10/28 08:32:18;;;;;;;1999.90;999.90;;;;;;;16.45;83.23;99446.38;10540406;28;20054;-69
2023/10/28 08:37:21;;;;;;;1999.90;999.90;;;;;;;16.49;84.18;99453.00;10539572;28;20512;-69
2023/10/28 08:42:24;;;;;;;1999.90;999.90;;;;;;;16.45;83.67;99454.31;10540156;28;20135;-69
2023/10/28 08:47:27;;;;;;;1999.90;999.90;;;;;;;17.15;79.41;99458.53;10522128;28;20051;-68
2023/10/28 08:52:31;;;;;;;1999.90;999.90;;;;;;;17.26;81.06;99460.81;10522101;28;20048;-68
2023/10/28 08:57:36;;;;;;;1999.90;999.90;;;;;;;16.03;85.23;99465.66;10526545;28;20052;-69
2023/10/28 09:02:41;;;;;;;1999.90;999.90;;;;;;;16.22;85.74;99475.97;10547880;28;20408;-68
2023/10/28 09:07:45;;;;;;;1999.90;999.90;;;;;;;16.19;84.75;99480.75;10530095;28;20063;-68
2023/10/28 09:12:50;;;;;;;1999.90;999.90;;;;;;;17.03;83.23;99489.69;10530356;28;20058;-68
2023/10/28 09:17:54;;;;;;;1999.90;999.90;;;;;;;16.98;82.32;99490.22;10530083;28;20135;-68
2023/10/28 09:22:57;;;;;;;1999.90;999.90;;;;;;;16.68;83.43;99488.94;10547611;28;20063;-69
2023/10/28 09:27:59;;;;;;;1999.90;999.90;;;;;;;17.57;80.23;99490.13;10547516;28;20128;-68
2023/10/28 09:33:01;;;;;;;1999.90;999.90;;;;;;;17.12;83.03;99511.72;10546604;28;20581;-68
2023/10/28 09:38:05;;;;;;;1999.90;999.90;;;;;;;17.51;81.38;99500.53;10546315;28;20055;-69
2023/10/28 09:43:08;;;;;;;1999.90;999.90;;;;;;;17.42;80.29;99494.41;10528823;28;20051;-68
2023/10/28 09:48:16;;;;;;;1999.90;999.90;;;;;;;17.48;84.66;99492.91;10546665;28;20055;-69
2023/10/28 09:53:27;;;;;;;1999.90;999.90;;;;;;;18.41;81.04;99489.88;10527921;28;20052;-68
2023/10/28 09:58:46;;;;;;;1999.90;999.90;;;;;;;18.35;79.29;99486.06;10528282;28;20044;-68
2023/10/28 10:04:00;;;;;;;1999.90;999.90;;;;;;;19.07;79.80;99492.25;10528160;28;20058;-68
2023/10/28 10:09:06;;;;;;;1999.90;999.90;;;;;;;18.09;77.08;99485.44;10527367;28;20127;-69
2023/10/28 10:14:12;;;;;;;1999.90;999.90;;;;;;;18.45;78.04;99480.56;10527739;28;20044;-69
2023/10/28 10:19:34;;;;;;;1999.90;999.90;;;;;;;18.65;78.93;99486.28;10545400;28;20048;-69
2023/10/28 10:24:36;;;;;;;1999.90;999.90;;;;;;;17.53;81.33;99483.47;10527399;28;20056;-69
2023/10/28 10:29:42;;;;;;;1999.90;999.90;;;;;;;18.11;78.24;99479.00;10526428;28;20044;-68
2023/10/28 10:34:47;;;;;;;1999.90;999.90;;;;;;;18.34;77.91;99484.41;10526884;28;20044;-68
2023/10/28 10:39:50;;;;;;;1999.90;999.90;;;;;;;19.47;75.98;99487.66;10544542;28;20048;-68
2023/10/28 10:44:53;;;;;;;1999.90;999.90;;;;;;;19.83;75.53;99481.72;10525927;28;20408;-69
2023/10/28 10:49:55;;;;;;;1999.90;999.90;;;;;;;20.76;70.55;99471.59;10544192;28;20135;-68
2023/10/28 10:55:01;;;;;;;1999.90;999.90;;;;;;;19.87;70.28;99477.72;10526107;28;20082;-69
2023/10/28 11:00:12;;;;;;;1999.90;999.90;;;;;;;19.33;69.58;99496.38;10525916;28;20050;-69
2023/10/28 11:05:15;;;;;;;1999.90;999.90;;;;;;;19.23;71.32;99494.78;10524874;28;20451;-68
2023/10/28 11:10:19;;;;;;;1999.90;999.90;;;;;;;19.21;71.22;99491.47;10525380;28;20488;-69
2023/10/28 11:15:22;;;;;;;1999.90;999.90;;;;;;;19.57;71.00;99490.03;10525234;28;20063;-69
2023/10/28 11:20:25;;;;;;;1999.90;999.90;;;;;;;19.82;68.68;99488.03;10531280;22;20068;-61
2023/10/28 11:25:35;;;;;;;1999.90;999.90;;;;;;;19.58;68.79;99478.44;10370798;28;20062;-61
2023/10/28 11:30:37;;;;;;;1999.90;999.90;;;;;;;19.82;66.35;99467.63;10370546;28;20482;-62
2023/10/28 11:35:40;;;;;;;1999.90;999.90;;;;;;;19.95;66.26;99476.81;10370979;28;20050;-63
2023/10/28 11:40:42;;;;;;;1999.90;999.90;;;;;;;19.57;64.33;99472.31;10370721;28;20049;-63
2023/10/28 11:45:45;;;;;;;1999.90;999.90;;;;;;;19.69;62.52;99467.41;10370062;28;20470;-62
2023/10/28 11:50:47;;;;;;;1999.90;999.90;;;;;;;19.86;64.83;99455.63;10369909;28;20547;-63
2023/10/28 11:55:50;;;;;;;1999.90;999.90;;;;;;;19.95;63.63;99474.97;10369751;28;20049;-63
2023/10/28 12:00:53;;;;;;;1999.90;999.90;;;;;;;19.21;64.89;99485.34;10369526;28;20057;-62
2023/10/28 12:05:56;;;;;;;1999.90;999.90;;;;;;;20.05;62.44;99480.03;10370019;28;20053;-63
2023/10/28 12:10:58;;;;;;;1999.90;999.90;;;;;;;21.11;59.80;99487.72;10369271;28;20418;-63
2023/10/28 12:16:01;;;;;;;1999.90;999.90;;;;;;;20.28;61.59;99493.25;10369672;28;20046;-63
2023/10/28 12:21:03;;;;;;;1999.90;999.90;;;;;;;20.56;60.13;99495.22;10368865;28;20445;-63
2023/10/28 12:26:06;;;;;;;1999.90;999.90;;;;;;;19.67;62.53;99496.78;10368861;28;20406;-63
2023/10/28 12:31:09;;;;;;;1999.90;999.90;;;;;;;20.19;61.95;99494.31;10369223;28;20053;-63
2023/10/28 12:36:11;;;;;;;1999.90;999.90;;;;;;;20.14;61.82;99486.91;10369642;28;20103;-63
2023/10/28 12:41:14;;;;;;;1999.90;999.90;;;;;;;19.85;60.31;99498.31;10351711;28;20115;-63
2023/10/28 12:46:16;;;;;;;1999.90;999.90;;;;;;;19.92;62.20;99501.91;10369376;28;20053;-63
2023/10/28 12:51:20;;;;;;;1999.90;999.90;;;;;;;20.19;61.95;99495.16;10368101;28;20058;-63
2023/10/28 12:56:23;;;;;;;1999.90;999.90;;;;;;;19.48;64.81;99499.91;10368515;28;20046;-63
2023/10/28 13:01:28;;;;;;;1999.90;999.90;;;;;;;19.15;64.43;99510.75;10367844;28;20418;-63
2023/10/28 13:06:32;;;;;;;1999.90;999.90;;;;;;;19.49;63.89;99501.56;10368351;28;20564;-64
2023/10/28 13:11:34;;;;;;;1999.90;999.90;;;;;;;19.63;62.57;99510.59;10368483;28;20053;-62
2023/10/28 13:16:37;;;;;;;1999.90;999.90;;;;;;;19.53;63.79;99499.38;10368130;28;20058;-62
2023/10/28 13:21:40;;;;;;;1999.90;999.90;;;;;;;20.10;60.37;99508.72;10367650;28;20092;-62
2023/10/28 13:26:42;;;;;;;1999.90;999.90;;;;;;;20.29;61.25;99504.69;10367339;28;20208;-62
2023/10/28 13:31:44;;;;;;;1999.90;999.90;;;;;;;19.93;62.26;99511.50;10367942;28;20056;-62
2023/10/28 13:36:49;;;;;;;1999.90;999.90;;;;;;;19.55;62.79;99508.84;10367664;28;20067;-62
2023/10/28 13:41:51;;;;;;;1999.90;999.90;;;;;;;19.98;61.62;99498.53;10368466;28;20136;-62
2023/10/28 13:46:54;;;;;;;1999.90;999.90;;;;;;;19.11;64.13;99510.28;10373877;28;20466;-62
2023/10/28 13:52:00;;;;;;;1999.90;999.90;;;;;;;19.80;62.16;99496.22;10373655;28;20123;-63
2023/10/28 13:57:02;;;;;;;1999.90;999.90;;;;;;;19.82;60.10;99501.31;10374120;28;20058;-62
2023/10/28 14:02:05;;;;;;;1999.90;999.90;;;;;;;19.43;64.29;99496.97;10373273;28;20087;-62
2023/10/28 14:07:07;;;;;;;1999.90;999.90;;;;;;;19.53;61.30;99502.84;10373757;28;20081;-62
2023/10/28 14:12:10;;;;;;;1999.90;999.90;;;;;;;19.64;63.25;99504.28;10372961;28;20058;-62
2023/10/28 14:17:12;;;;;;;1999.90;999.90;;;;;;;19.29;64.70;99509.19;10373395;28;20045;-62
2023/10/28 14:22:16;;;;;;;1999.90;999.90;;;;;;;19.51;64.72;99510.19;10372797;28;20481;-62
2023/10/28 14:27:18;;;;;;;1999.90;999.90;;;;;;;19.38;66.00;99518.72;10372544;28;20461;-62
2023/10/28 14:32:21;;;;;;;1999.90;999.90;;;;;;;19.15;67.03;99517.88;10372957;28;20065;-62
2023/10/28 14:37:23;;;;;;;1999.90;999.90;;;;;;;19.21;65.84;99512.69;10372818;28;20046;-62
2023/10/28 14:42:26;;;;;;;1999.90;999.90;;;;;;;19.74;62.55;99501.38;10372051;28;20050;-62
2023/10/28 14:47:28;;;;;;;1999.90;999.90;;;;;;;19.20;66.47;99507.56;10371911;28;20050;-62
2023/10/28 14:52:30;;;;;;;1999.90;999.90;;;;;;;18.99;66.16;99502.88;10371404;28;20054;-62
2023/10/28 14:57:34;;;;;;;1999.90;999.90;;;;;;;19.12;66.94;99495.19;10353924;28;20046;-62
2023/10/28 15:02:40;;;;;;;1999.90;999.90;;;;;;;18.52;67.52;99507.19;10354908;28;20054;-63
2023/10/28 15:07:43;;;;;;;1999.90;999.90;;;;;;;18.20;70.32;99498.34;10371337;28;20409;-62
2023/10/28 15:12:48;;;;;;;1999.90;999.90;;;;;;;18.53;70.21;99493.78;10371735;28;20058;-62
2023/10/28 15:17:51;;;;;;;1999.90;999.90;;;;;;;18.12;70.64;99501.84;10371358;28;20416;-62
2023/10/28 15:22:54;;;;;;;1999.90;999.90;;;;;;;18.49;69.60;99496.94;10370772;28;20061;-62
2023/10/28 15:27:56;;;;;;;1999.90;999.90;;;;;;;18.46;70.13;99500.78;10371329;28;20080;-62
2023/10/28 15:32:58;;;;;;;1999.90;999.90;;;;;;;18.46;70.12;99499.94;10371073;28;20058;-62
2023/10/28 15:38:01;;;;;;;1999.90;999.90;;;;;;;18.33;71.74;99489.88;10370700;28;20087;-62
2023/10/28 15:43:03;;;;;;;1999.90;999.90;;;;;;;18.24;71.56;99502.34;10370727;28;20103;-62
2023/10/28 15:48:08;;;;;;;1999.90;999.90;;;;;;;18.05;72.05;99497.41;10370638;28;20056;-62
2023/10/28 15:53:10;;;;;;;1999.90;999.90;;;;;;;17.58;73.99;99493.59;10370357;28;20049;-62
2023/10/28 15:58:14;;;;;;;1999.90;999.90;;;;;;;17.60;73.93;99508.31;10369600;28;20482;-62
2023/10/28 16:03:17;;;;;;;1999.90;999.90;;;;;;;17.65;72.63;99505.16;10369968;28;20137;-62
2023/10/28 16:08:20;;;;;;;1999.90;999.90;;;;;;;17.59;72.48;99503.19;10369634;28;20111;-62
2023/10/28 16:13:22;;;;;;;1999.90;999.90;;;;;;;17.71;72.83;99491.28;10352543;28;20054;-62
2023/10/28 16:18:26;;;;;;;1999.90;999.90;;;;;;;17.95;71.62;99487.78;10369015;28;20505;-62
2023/10/28 16:23:29;;;;;;;1999.90;999.90;;;;;;;17.52;73.87;99483.69;10351961;28;20062;-62
2023/10/28 16:28:32;;;;;;;1999.90;999.90;;;;;;;17.36;73.54;99477.34;10369301;28;20052;-62
2023/10/28 16:33:35;;;;;;;1999.90;999.90;;;;;;;16.77;75.35;99484.50;10368635;28;20589;-62
2023/10/28 16:38:38;;;;;;;1999.90;999.90;;;;;;;17.30;73.53;99493.91;10369044;28;20091;-62
2023/10/28 16:43:40;;;;;;;1999.90;999.90;;;;;;;17.04;75.13;99499.31;10368929;28;20068;-62
2023/10/28 16:48:42;;;;;;;1999.90;999.90;;;;;;;17.36;73.42;99513.56;10368179;28;20479;-62
2023/10/28 16:53:45;;;;;;;1999.90;999.90;;;;;;;16.71;76.22;99515.84;10368705;28;20064;-62
2023/10/28 16:58:48;;;;;;;1999.90;999.90;;;;;;;16.97;75.69;99512.34;10368430;28;20379;-62
2023/10/28 17:03:50;;;;;;;1999.90;999.90;;;;;;;16.69;75.79;99528.41;10350643;28;20490;-62
2023/10/28 17:08:54;;;;;;;1999.90;999.90;;;;;;;16.96;75.12;99528.34;10367729;28;20405;-62
2023/10/28 17:13:56;;;;;;;1999.90;999.90;;;;;;;16.74;75.81;99509.41;10350374;28;20410;-62
2023/10/28 17:19:04;;;;;;;1999.90;999.90;;;;;;;16.97;75.86;99514.16;10372161;28;20058;-62
2023/10/28 17:24:07;;;;;;;1999.90;999.90;;;;;;;16.77;74.84;99495.06;10374928;28;20119;-62
2023/10/28 17:29:09;;;;;;;1999.90;999.90;;;;;;;16.61;75.57;99498.44;10357732;28;20045;-62
2023/10/28 17:34:12;;;;;;;1999.90;999.90;;;;;;;16.52;75.30;99500.25;10374888;28;20046;-62
2023/10/28 17:39:14;;;;;;;1999.90;999.90;;;;;;;16.31;77.04;99498.81;10374675;28;20054;-62
2023/10/28 17:44:16;;;;;;;1999.90;999.90;;;;;;;16.35;77.12;99492.22;10374581;28;20050;-62
2023/10/28 17:49:19;;;;;;;1999.90;999.90;;;;;;;16.19;77.25;99493.94;10357062;28;20088;-62
2023/10/28 17:54:21;;;;;;;1999.90;999.90;;;;;;;16.47;77.00;99502.53;10373586;28;20405;-62
2023/10/28 17:59:26;;;;;;;1999.90;999.90;;;;;;;16.72;75.35;99495.53;10374033;28;20050;-62
2023/10/28 18:04:29;;;;;;;1999.90;999.90;;;;;;;16.37;77.51;99501.81;10373834;28;20049;-62
2023/10/28 18:09:33;;;;;;;1999.90;999.90;;;;;;;16.05;78.26;99498.00;10373760;28;20056;-62
2023/10/28 18:14:36;;;;;;;1999.90;999.90;;;;;;;16.20;76.18;99499.06;10372925;28;20518;-62
2023/10/28 18:19:38;;;;;;;1999.90;999.90;;;;;;;15.93;78.51;99506.16;10356160;28;20050;-62
2023/10/28 18:24:41;;;;;;;1999.90;999.90;;;;;;;16.15;79.58;99498.72;10372554;28;20529;-62
2023/10/28 18:29:43;;;;;;;1999.90;999.90;;;;;;;16.43;76.57;99498.56;10372830;28;20046;-62
2023/10/28 18:34:50;;;;;;;1999.90;999.90;;;;;;;16.35;78.45;99494.06;10373004;28;20060;-62
2023/10/28 18:39:52;;;;;;;1999.90;999.90;;;;;;;16.07;81.39;99507.44;10372143;28;20405;-62
2023/10/28 18:44:55;;;;;;;1999.90;999.90;;;;;;;16.27;79.31;99483.44;10372013;28;20505;-62
2023/10/28 18:49:57;;;;;;;1999.90;999.90;;;;;;;16.31;79.39;99490.91;10372469;28;20048;-62
2023/10/28 18:55:00;;;;;;;1999.90;999.90;;;;;;;16.09;80.49;99479.06;10354637;28;20049;-62
2023/10/28 19:00:04;;;;;;;1999.90;999.90;;;;;;;16.21;78.27;99461.13;10354826;28;20052;-62
2023/10/28 19:05:08;;;;;;;1999.90;999.90;;;;;;;15.76;81.35;99463.00;10372096;28;20050;-62
2023/10/28 19:10:11;;;;;;;1999.90;999.90;;;;;;;16.46;78.40;99448.88;10371271;28;20417;-62
2023/10/28 19:15:13;;;;;;;1999.90;999.90;;;;;;;16.62;79.25;99434.06;10372396;28;20088;-62
2023/10/28 19:20:15;;;;;;;1999.90;999.90;;;;;;;16.55;78.66;99431.22;10353311;28;20042;-62
2023/10/28 19:25:18;;;;;;;1999.90;999.90;;;;;;;16.71;77.90;99439.22;10370854;28;20578;-62
2023/10/28 19:30:20;;;;;;;1999.90;999.90;;;;;;;16.09;81.29;99428.91;10354085;28;20049;-62
2023/10/28 19:35:23;;;;;;;1999.90;999.90;;;;;;;17.02;77.12;99422.78;10371100;28;20128;-62
2023/10/28 19:40:25;;;;;;;1999.90;999.90;;;;;;;16.50;80.80;99426.41;10352189;28;20440;-62
2023/10/28 19:45:27;;;;;;;1999.90;999.90;;;;;;;16.22;80.21;99420.53;10370167;28;20050;-62
2023/10/28 19:50:30;;;;;;;1999.90;999.90;;;;;;;16.20;81.57;99419.88;10370566;28;20046;-62
2023/10/28 19:55:34;;;;;;;1999.90;999.90;;;;;;;16.09;82.13;99414.88;10370472;28;20125;-61
2023/10/28 20:00:36;;;;;;;1999.90;999.90;;;;;;;16.56;83.27;99410.91;10370186;28;20048;-61
2023/10/28 20:05:39;;;;;;;1999.90;999.90;;;;;;;16.69;82.55;99411.28;10352851;28;20089;-61
2023/10/28 20:10:41;;;;;;;1999.90;999.90;;;;;;;16.82;82.45;99409.00;10370000;28;20046;-62
2023/10/28 20:15:44;;;;;;;1999.90;999.90;;;;;;;16.35;83.83;99399.78;10369166;28;20494;-62
2023/10/28 20:20:46;;;;;;;1999.90;999.90;;;;;;;16.55;82.80;99398.72;10352079;28;20122;-62
2023/10/28 20:25:49;;;;;;;1999.90;999.90;;;;;;;16.26;84.09;99382.28;10368954;28;20498;-61
2023/10/28 20:30:52;;;;;;;1999.90;999.90;;;;;;;15.96;88.17;99375.69;10369383;28;20080;-61
2023/10/28 20:35:55;;;;;;;1999.90;999.90;;;;;;;16.14;86.69;99376.44;10368484;28;20514;-62
2023/10/28 20:40:57;;;;;;;1999.90;999.90;;;;;;;16.44;84.40;99378.69;10368453;28;20397;-62
2023/10/28 20:46:01;;;;;;;1999.90;999.90;;;;;;;16.63;85.11;99369.66;10352235;28;20129;-61
2023/10/28 20:51:03;;;;;;;1999.90;999.90;;;;;;;16.94;84.33;99359.31;10367239;28;20046;-61
2023/10/28 20:56:07;;;;;;;1999.90;999.90;;;;;;;16.71;84.25;99343.25;10368614;28;20054;-61
2023/10/28 21:01:10;;;;;;;1999.90;999.90;;;;;;;16.17;85.72;99340.97;10367911;28;20491;-61
2023/10/28 21:06:12;;;;;;;1999.90;999.90;;;;;;;16.10;86.51;99329.41;10368459;28;20102;-61
2023/10/28 21:11:14;;;;;;;1999.90;999.90;;;;;;;16.67;88.68;99328.72;10368337;28;20060;-61
2023/10/28 21:16:17;;;;;;;1999.90;999.90;;;;;;;16.50;87.22;99298.81;10368207;28;20106;-61
2023/10/28 21:21:19;;;;;;;1999.90;999.90;;;;;;;16.27;87.05;99301.22;10367704;28;20058;-61
2023/10/28 21:26:22;;;;;;;1999.90;999.90;;;;;;;16.71;88.29;99291.22;10349950;28;20509;-61
2023/10/28 21:31:24;;;;;;;1999.90;999.90;;;;;;;16.44;88.37;99273.88;10367221;28;20046;-61
2023/10/28 21:36:26;;;;;;;1999.90;999.90;;;;;;;16.41;91.21;99273.34;10350419;28;20045;-61
2023/10/28 21:41:29;;;;;;;1999.90;999.90;;;;;;;16.53;91.09;99258.84;10366861;28;20510;-61
2023/10/28 21:46:31;;;;;;;1999.90;999.90;;;;;;;16.68;88.78;99251.09;10367914;28;20081;-61
2023/10/28 21:51:34;;;;;;;1999.90;999.90;;;;;;;16.61;89.69;99234.22;10366641;28;20050;-61
2023/10/28 21:56:36;;;;;;;1999.90;999.90;;;;;;;16.46;89.40;99232.25;10367160;28;20046;-61
2023/10/28 22:01:39;;;;;;;1999.90;999.90;;;;;;;17.16;86.02;99220.31;10366989;28;20054;-61
2023/10/28 22:06:41;;;;;;;1999.90;999.90;;;;;;;16.95;86.22;99215.59;10373681;28;20095;-61
2023/10/28 22:11:47;;;;;;;1999.90;999.90;;;;;;;16.82;89.81;99205.50;10373726;28;20129;-61